sensor_id;sensor_type;location;lat;lon;timestamp;temperature;humidity
61641;HTU21D;62201;49.966;8.342;2022-12-24T00:00:20;11.79;83.88
61641;HTU21D;62201;49.966;8.342;2022-12-24T00:02:46;11.72;85.16
61641;HTU21D;62201;49.966;8.342;2022-12-24T00:05:11;11.74;84.34
61641;HTU21D;62201;49.966;8.342;2022-12-24T00:07:37;11.74;83.63
61641;HTU21D;62201;49.966;8.342;2022-12-24T00:10:04;11.82;81.07
61641;HTU21D;62201;49.966;8.342;2022-12-24T00:12:29;11.72;81.97
61641;HTU21D;62201;49.966;8.342;2022-12-24T00:14:55;11.81;79.36
61641;HTU21D;62201;49.966;8.342;2022-12-24T00:17:20;11.83;80.00
61641;HTU21D;62201;49.966;8.342;2022-12-24T00:19:46;11.84;79.41
61641;HTU21D;62201;49.966;8.342;2022-12-24T00:22:11;11.88;80.04
61641;HTU21D;62201;49.966;8.342;2022-12-24T00:24:36;11.74;80.17
61641;HTU21D;62201;49.966;8.342;2022-12-24T00:27:02;11.69;81.03
61641;HTU21D;62201;49.966;8.342;2022-12-24T00:29:28;11.68;79.55
61641;HTU21D;62201;49.966;8.342;2022-12-24T00:31:53;11.66;79.38
61641;HTU21D;62201;49.966;8.342;2022-12-24T00:34:18;11.55;81.84
61641;HTU21D;62201;49.966;8.342;2022-12-24T00:36:44;11.43;81.85
61641;HTU21D;62201;49.966;8.342;2022-12-24T00:39:09;11.54;79.88
61641;HTU21D;62201;49.966;8.342;2022-12-24T00:41:35;11.61;78.96
61641;HTU21D;62201;49.966;8.342;2022-12-24T00:44:03;11.60;80.72
61641;HTU21D;62201;49.966;8.342;2022-12-24T00:46:34;11.57;80.31
61641;HTU21D;62201;49.966;8.342;2022-12-24T00:49:00;11.52;79.98
61641;HTU21D;62201;49.966;8.342;2022-12-24T00:51:26;11.51;80.26
61641;HTU21D;62201;49.966;8.342;2022-12-24T00:53:52;11.47;82.35
61641;HTU21D;62201;49.966;8.342;2022-12-24T00:56:18;11.40;82.55
61641;HTU21D;62201;49.966;8.342;2022-12-24T00:58:44;11.40;84.33
61641;HTU21D;62201;49.966;8.342;2022-12-24T01:01:10;11.39;82.07
61641;HTU21D;62201;49.966;8.342;2022-12-24T01:03:36;11.29;84.00
61641;HTU21D;62201;49.966;8.342;2022-12-24T01:06:07;11.24;83.11
61641;HTU21D;62201;49.966;8.342;2022-12-24T01:08:33;11.17;83.93
61641;HTU21D;62201;49.966;8.342;2022-12-24T01:10:59;11.13;85.85
61641;HTU21D;62201;49.966;8.342;2022-12-24T01:13:24;11.11;85.33
61641;HTU21D;62201;49.966;8.342;2022-12-24T01:15:50;11.09;85.81
61641;HTU21D;62201;49.966;8.342;2022-12-24T01:18:15;11.04;86.83
61641;HTU21D;62201;49.966;8.342;2022-12-24T01:20:41;10.95;87.10
61641;HTU21D;62201;49.966;8.342;2022-12-24T01:23:07;10.94;86.30
61641;HTU21D;62201;49.966;8.342;2022-12-24T01:25:32;10.88;87.56
61641;HTU21D;62201;49.966;8.342;2022-12-24T01:27:58;10.86;87.51
61641;HTU21D;62201;49.966;8.342;2022-12-24T01:30:23;10.82;87.89
61641;HTU21D;62201;49.966;8.342;2022-12-24T01:32:49;10.83;86.91
61641;HTU21D;62201;49.966;8.342;2022-12-24T01:35:14;10.78;87.72
61641;HTU21D;62201;49.966;8.342;2022-12-24T01:37:41;10.78;88.67
61641;HTU21D;62201;49.966;8.342;2022-12-24T01:40:07;10.74;88.65
61641;HTU21D;62201;49.966;8.342;2022-12-24T01:42:51;10.73;89.21
61641;HTU21D;62201;49.966;8.342;2022-12-24T01:45:44;10.71;89.28
61641;HTU21D;62201;49.966;8.342;2022-12-24T01:48:40;10.63;91.20
61641;HTU21D;62201;49.966;8.342;2022-12-24T01:54:14;10.53;90.85
61641;HTU21D;62201;49.966;8.342;2022-12-24T01:56:44;10.45;91.48
61641;HTU21D;62201;49.966;8.342;2022-12-24T01:59:12;10.42;92.53
61641;HTU21D;62201;49.966;8.342;2022-12-24T02:01:38;10.31;92.76
61641;HTU21D;62201;49.966;8.342;2022-12-24T02:04:11;10.25;93.27
61641;HTU21D;62201;49.966;8.342;2022-12-24T02:06:37;10.22;94.07
61641;HTU21D;62201;49.966;8.342;2022-12-24T02:09:02;10.15;93.52
61641;HTU21D;62201;49.966;8.342;2022-12-24T02:11:29;10.15;93.87
61641;HTU21D;62201;49.966;8.342;2022-12-24T02:13:57;10.12;94.36
61641;HTU21D;62201;49.966;8.342;2022-12-24T02:22:11;10.04;95.33
61641;HTU21D;62201;49.966;8.342;2022-12-24T02:27:56;10.03;95.64
61641;HTU21D;62201;49.966;8.342;2022-12-24T02:30:30;10.05;95.63
61641;HTU21D;62201;49.966;8.342;2022-12-24T02:38:32;10.21;93.29
61641;HTU21D;62201;49.966;8.342;2022-12-24T02:41:08;10.25;94.02
61641;HTU21D;62201;49.966;8.342;2022-12-24T02:43:39;10.27;93.51
61641;HTU21D;62201;49.966;8.342;2022-12-24T02:46:11;10.34;93.49
61641;HTU21D;62201;49.966;8.342;2022-12-24T02:48:41;10.38;93.39
61641;HTU21D;62201;49.966;8.342;2022-12-24T02:51:09;10.48;94.07
61641;HTU21D;62201;49.966;8.342;2022-12-24T02:53:35;10.53;92.28
61641;HTU21D;62201;49.966;8.342;2022-12-24T03:07:03;10.73;91.81
61641;HTU21D;62201;49.966;8.342;2022-12-24T03:09:18;10.68;91.34
61641;HTU21D;62201;49.966;8.342;2022-12-24T03:11:52;10.67;91.43
61641;HTU21D;62201;49.966;8.342;2022-12-24T03:14:20;10.73;91.37
61641;HTU21D;62201;49.966;8.342;2022-12-24T03:16:47;10.71;91.05
61641;HTU21D;62201;49.966;8.342;2022-12-24T03:19:13;10.75;91.21
61641;HTU21D;62201;49.966;8.342;2022-12-24T03:21:40;10.73;90.99
61641;HTU21D;62201;49.966;8.342;2022-12-24T03:24:08;10.71;91.29
61641;HTU21D;62201;49.966;8.342;2022-12-24T03:26:35;10.69;91.60
61641;HTU21D;62201;49.966;8.342;2022-12-24T03:29:05;10.63;92.02
61641;HTU21D;62201;49.966;8.342;2022-12-24T03:31:48;10.57;92.56
61641;HTU21D;62201;49.966;8.342;2022-12-24T03:34:15;10.54;93.57
61641;HTU21D;62201;49.966;8.342;2022-12-24T03:36:41;10.50;94.67
61641;HTU21D;62201;49.966;8.342;2022-12-24T03:39:07;10.46;95.26
61641;HTU21D;62201;49.966;8.342;2022-12-24T03:41:33;10.43;94.17
61641;HTU21D;62201;49.966;8.342;2022-12-24T03:43:59;10.45;94.85
61641;HTU21D;62201;49.966;8.342;2022-12-24T03:46:24;10.43;94.94
61641;HTU21D;62201;49.966;8.342;2022-12-24T03:48:49;10.39;96.22
61641;HTU21D;62201;49.966;8.342;2022-12-24T03:51:20;10.34;96.25
61641;HTU21D;62201;49.966;8.342;2022-12-24T03:53:46;10.28;96.50
61641;HTU21D;62201;49.966;8.342;2022-12-24T03:56:12;10.26;97.20
61641;HTU21D;62201;49.966;8.342;2022-12-24T03:58:38;10.24;98.29
61641;HTU21D;62201;49.966;8.342;2022-12-24T04:01:04;10.19;98.18
61641;HTU21D;62201;49.966;8.342;2022-12-24T04:03:29;10.18;98.44
61641;HTU21D;62201;49.966;8.342;2022-12-24T04:06:08;10.16;98.31
61641;HTU21D;62201;49.966;8.342;2022-12-24T04:08:34;10.12;98.60
61641;HTU21D;62201;49.966;8.342;2022-12-24T04:11:00;10.06;98.90
61641;HTU21D;62201;49.966;8.342;2022-12-24T04:13:25;10.06;98.72
61641;HTU21D;62201;49.966;8.342;2022-12-24T04:16:01;10.06;99.37
61641;HTU21D;62201;49.966;8.342;2022-12-24T04:18:27;10.05;98.35
61641;HTU21D;62201;49.966;8.342;2022-12-24T04:20:53;10.06;99.65
61641;HTU21D;62201;49.966;8.342;2022-12-24T04:23:19;10.08;99.49
61641;HTU21D;62201;49.966;8.342;2022-12-24T04:25:45;10.11;99.55
61641;HTU21D;62201;49.966;8.342;2022-12-24T04:28:10;10.08;98.47
61641;HTU21D;62201;49.966;8.342;2022-12-24T04:30:37;10.09;99.53
61641;HTU21D;62201;49.966;8.342;2022-12-24T04:33:03;10.08;100.29
61641;HTU21D;62201;49.966;8.342;2022-12-24T04:35:28;10.06;99.84
61641;HTU21D;62201;49.966;8.342;2022-12-24T04:37:54;10.08;100.03
61641;HTU21D;62201;49.966;8.342;2022-12-24T04:40:19;10.06;99.76
61641;HTU21D;62201;49.966;8.342;2022-12-24T04:42:44;10.09;99.80
61641;HTU21D;62201;49.966;8.342;2022-12-24T04:45:11;10.08;100.31
61641;HTU21D;62201;49.966;8.342;2022-12-24T04:47:36;10.07;99.59
61641;HTU21D;62201;49.966;8.342;2022-12-24T04:50:02;10.04;99.71
61641;HTU21D;62201;49.966;8.342;2022-12-24T04:52:27;10.00;100.08
61641;HTU21D;62201;49.966;8.342;2022-12-24T04:54:53;10.01;99.88
61641;HTU21D;62201;49.966;8.342;2022-12-24T04:57:18;9.98;100.30
61641;HTU21D;62201;49.966;8.342;2022-12-24T04:59:43;9.97;99.83
61641;HTU21D;62201;49.966;8.342;2022-12-24T05:02:09;9.97;99.93
61641;HTU21D;62201;49.966;8.342;2022-12-24T05:04:34;9.97;100.19
61641;HTU21D;62201;49.966;8.342;2022-12-24T05:07:00;9.96;100.30
61641;HTU21D;62201;49.966;8.342;2022-12-24T05:09:25;9.94;100.40
61641;HTU21D;62201;49.966;8.342;2022-12-24T05:11:50;9.92;100.63
61641;HTU21D;62201;49.966;8.342;2022-12-24T05:14:16;9.91;99.90
61641;HTU21D;62201;49.966;8.342;2022-12-24T05:16:41;9.88;100.83
61641;HTU21D;62201;49.966;8.342;2022-12-24T05:19:08;9.84;101.16
61641;HTU21D;62201;49.966;8.342;2022-12-24T05:21:33;9.82;101.27
61641;HTU21D;62201;49.966;8.342;2022-12-24T05:23:59;9.82;100.99
61641;HTU21D;62201;49.966;8.342;2022-12-24T05:26:47;9.84;101.38
61641;HTU21D;62201;49.966;8.342;2022-12-24T05:29:13;9.85;101.50
61641;HTU21D;62201;49.966;8.342;2022-12-24T05:31:40;9.84;102.03
61641;HTU21D;62201;49.966;8.342;2022-12-24T05:34:07;9.83;102.28
61641;HTU21D;62201;49.966;8.342;2022-12-24T05:36:32;9.85;101.79
61641;HTU21D;62201;49.966;8.342;2022-12-24T05:38:58;9.83;102.12
61641;HTU21D;62201;49.966;8.342;2022-12-24T05:41:24;9.81;102.51
61641;HTU21D;62201;49.966;8.342;2022-12-24T05:43:50;9.82;102.15
61641;HTU21D;62201;49.966;8.342;2022-12-24T05:46:18;9.80;102.68
61641;HTU21D;62201;49.966;8.342;2022-12-24T05:48:44;9.82;103.15
61641;HTU21D;62201;49.966;8.342;2022-12-24T05:51:12;9.79;103.22
61641;HTU21D;62201;49.966;8.342;2022-12-24T05:53:38;9.78;103.45
61641;HTU21D;62201;49.966;8.342;2022-12-24T05:56:19;9.76;103.63
61641;HTU21D;62201;49.966;8.342;2022-12-24T05:58:45;9.71;103.90
61641;HTU21D;62201;49.966;8.342;2022-12-24T06:01:11;9.67;104.31
61641;HTU21D;62201;49.966;8.342;2022-12-24T06:03:36;9.67;104.13
61641;HTU21D;62201;49.966;8.342;2022-12-24T06:06:05;9.62;104.31
61641;HTU21D;62201;49.966;8.342;2022-12-24T06:08:31;9.61;104.48
61641;HTU21D;62201;49.966;8.342;2022-12-24T06:11:03;9.54;104.53
61641;HTU21D;62201;49.966;8.342;2022-12-24T06:13:29;9.53;104.86
61641;HTU21D;62201;49.966;8.342;2022-12-24T06:16:00;9.52;104.88
61641;HTU21D;62201;49.966;8.342;2022-12-24T06:18:28;9.52;105.15
61641;HTU21D;62201;49.966;8.342;2022-12-24T06:20:55;9.55;105.37
61641;HTU21D;62201;49.966;8.342;2022-12-24T06:23:21;9.52;105.36
61641;HTU21D;62201;49.966;8.342;2022-12-24T06:25:47;9.54;105.40
61641;HTU21D;62201;49.966;8.342;2022-12-24T06:28:13;9.54;105.20
61641;HTU21D;62201;49.966;8.342;2022-12-24T06:30:38;9.59;105.24
61641;HTU21D;62201;49.966;8.342;2022-12-24T06:33:04;9.61;104.86
61641;HTU21D;62201;49.966;8.342;2022-12-24T06:35:32;9.68;104.29
61641;HTU21D;62201;49.966;8.342;2022-12-24T06:37:58;9.72;104.44
61641;HTU21D;62201;49.966;8.342;2022-12-24T06:40:24;9.71;104.18
61641;HTU21D;62201;49.966;8.342;2022-12-24T06:42:50;9.66;104.20
61641;HTU21D;62201;49.966;8.342;2022-12-24T06:45:15;9.56;104.60
61641;HTU21D;62201;49.966;8.342;2022-12-24T06:47:41;9.46;105.08
61641;HTU21D;62201;49.966;8.342;2022-12-24T06:50:06;9.44;105.60
61641;HTU21D;62201;49.966;8.342;2022-12-24T06:52:32;9.39;105.79
61641;HTU21D;62201;49.966;8.342;2022-12-24T06:54:57;9.36;106.09
61641;HTU21D;62201;49.966;8.342;2022-12-24T06:57:23;9.38;106.11
61641;HTU21D;62201;49.966;8.342;2022-12-24T06:59:48;9.44;105.93
61641;HTU21D;62201;49.966;8.342;2022-12-24T07:02:13;9.49;106.14
61641;HTU21D;62201;49.966;8.342;2022-12-24T07:04:39;9.53;105.94
61641;HTU21D;62201;49.966;8.342;2022-12-24T07:07:04;9.57;105.56
61641;HTU21D;62201;49.966;8.342;2022-12-24T07:09:30;9.61;105.52
61641;HTU21D;62201;49.966;8.342;2022-12-24T07:11:55;9.64;105.97
61641;HTU21D;62201;49.966;8.342;2022-12-24T07:14:21;9.65;105.42
61641;HTU21D;62201;49.966;8.342;2022-12-24T07:16:46;9.71;105.23
61641;HTU21D;62201;49.966;8.342;2022-12-24T07:19:12;9.78;105.08
61641;HTU21D;62201;49.966;8.342;2022-12-24T07:21:37;9.80;104.74
61641;HTU21D;62201;49.966;8.342;2022-12-24T07:24:03;9.84;104.60
61641;HTU21D;62201;49.966;8.342;2022-12-24T07:26:28;9.88;104.36
61641;HTU21D;62201;49.966;8.342;2022-12-24T07:28:54;9.90;104.79
61641;HTU21D;62201;49.966;8.342;2022-12-24T07:31:19;9.90;104.76
61641;HTU21D;62201;49.966;8.342;2022-12-24T07:33:45;9.90;104.84
61641;HTU21D;62201;49.966;8.342;2022-12-24T07:36:16;9.90;104.77
61641;HTU21D;62201;49.966;8.342;2022-12-24T07:38:43;9.90;104.76
61641;HTU21D;62201;49.966;8.342;2022-12-24T07:41:08;9.93;104.31
61641;HTU21D;62201;49.966;8.342;2022-12-24T07:43:33;9.98;103.15
61641;HTU21D;62201;49.966;8.342;2022-12-24T07:45:59;10.01;103.32
61641;HTU21D;62201;49.966;8.342;2022-12-24T07:48:26;10.04;103.95
61641;HTU21D;62201;49.966;8.342;2022-12-24T07:50:51;10.06;103.60
61641;HTU21D;62201;49.966;8.342;2022-12-24T07:53:17;10.08;102.96
61641;HTU21D;62201;49.966;8.342;2022-12-24T07:55:43;10.10;102.83
61641;HTU21D;62201;49.966;8.342;2022-12-24T07:58:11;10.13;103.28
61641;HTU21D;62201;49.966;8.342;2022-12-24T08:00:37;10.19;102.54
61641;HTU21D;62201;49.966;8.342;2022-12-24T08:03:02;10.23;102.74
61641;HTU21D;62201;49.966;8.342;2022-12-24T08:05:28;10.24;102.57
61641;HTU21D;62201;49.966;8.342;2022-12-24T08:07:53;10.25;102.96
61641;HTU21D;62201;49.966;8.342;2022-12-24T08:10:19;10.25;103.20
61641;HTU21D;62201;49.966;8.342;2022-12-24T08:12:44;10.25;102.99
61641;HTU21D;62201;49.966;8.342;2022-12-24T08:15:10;10.25;102.48
61641;HTU21D;62201;49.966;8.342;2022-12-24T08:17:36;10.24;103.21
61641;HTU21D;62201;49.966;8.342;2022-12-24T08:20:02;10.19;103.47
61641;HTU21D;62201;49.966;8.342;2022-12-24T08:22:28;10.15;103.66
61641;HTU21D;62201;49.966;8.342;2022-12-24T08:24:53;10.11;104.20
61641;HTU21D;62201;49.966;8.342;2022-12-24T08:27:18;10.11;104.06
61641;HTU21D;62201;49.966;8.342;2022-12-24T08:29:44;10.09;103.96
61641;HTU21D;62201;49.966;8.342;2022-12-24T08:32:09;10.12;104.27
61641;HTU21D;62201;49.966;8.342;2022-12-24T08:34:34;10.16;103.82
61641;HTU21D;62201;49.966;8.342;2022-12-24T08:37:00;10.16;104.49
61641;HTU21D;62201;49.966;8.342;2022-12-24T08:39:25;10.11;105.17
61641;HTU21D;62201;49.966;8.342;2022-12-24T08:41:50;10.03;106.18
61641;HTU21D;62201;49.966;8.342;2022-12-24T08:44:16;9.96;106.66
61641;HTU21D;62201;49.966;8.342;2022-12-24T08:46:41;9.92;107.56
61641;HTU21D;62201;49.966;8.342;2022-12-24T08:49:07;9.89;107.71
61641;HTU21D;62201;49.966;8.342;2022-12-24T08:51:32;9.85;108.17
61641;HTU21D;62201;49.966;8.342;2022-12-24T08:53:57;9.85;108.38
61641;HTU21D;62201;49.966;8.342;2022-12-24T08:56:23;9.84;108.69
61641;HTU21D;62201;49.966;8.342;2022-12-24T08:58:48;9.81;108.82
61641;HTU21D;62201;49.966;8.342;2022-12-24T09:01:16;9.82;109.04
61641;HTU21D;62201;49.966;8.342;2022-12-24T09:03:42;9.82;109.17
61641;HTU21D;62201;49.966;8.342;2022-12-24T09:06:08;9.83;109.23
61641;HTU21D;62201;49.966;8.342;2022-12-24T09:08:34;9.82;109.25
61641;HTU21D;62201;49.966;8.342;2022-12-24T09:11:05;9.78;109.93
61641;HTU21D;62201;49.966;8.342;2022-12-24T09:13:30;9.81;110.42
61641;HTU21D;62201;49.966;8.342;2022-12-24T09:15:56;9.85;110.22
61641;HTU21D;62201;49.966;8.342;2022-12-24T09:18:22;9.93;109.54
61641;HTU21D;62201;49.966;8.342;2022-12-24T09:20:48;10.00;109.33
61641;HTU21D;62201;49.966;8.342;2022-12-24T09:23:13;10.14;107.33
61641;HTU21D;62201;49.966;8.342;2022-12-24T09:25:42;10.31;106.00
61641;HTU21D;62201;49.966;8.342;2022-12-24T09:28:07;10.46;105.18
61641;HTU21D;62201;49.966;8.342;2022-12-24T09:30:33;10.58;104.04
61641;HTU21D;62201;49.966;8.342;2022-12-24T09:32:58;10.66;106.11
61641;HTU21D;62201;49.966;8.342;2022-12-24T09:35:23;10.79;104.96
61641;HTU21D;62201;49.966;8.342;2022-12-24T09:37:49;10.90;102.63
61641;HTU21D;62201;49.966;8.342;2022-12-24T09:40:32;11.00;102.79
61641;HTU21D;62201;49.966;8.342;2022-12-24T09:42:59;11.04;102.54
61641;HTU21D;62201;49.966;8.342;2022-12-24T09:45:31;11.10;101.57
61641;HTU21D;62201;49.966;8.342;2022-12-24T09:48:04;11.12;101.51
61641;HTU21D;62201;49.966;8.342;2022-12-24T09:53:29;11.30;99.16
61641;HTU21D;62201;49.966;8.342;2022-12-24T09:56:01;11.42;98.52
61641;HTU21D;62201;49.966;8.342;2022-12-24T09:58:35;11.47;97.06
61641;HTU21D;62201;49.966;8.342;2022-12-24T10:01:01;11.67;97.75
61641;HTU21D;62201;49.966;8.342;2022-12-24T10:03:27;12.15;95.59
61641;HTU21D;62201;49.966;8.342;2022-12-24T10:11:34;12.72;92.53
61641;HTU21D;62201;49.966;8.342;2022-12-24T10:25:11;13.14;91.32
61641;HTU21D;62201;49.966;8.342;2022-12-24T10:27:39;13.21;91.63
61641;HTU21D;62201;49.966;8.342;2022-12-24T10:30:17;13.16;90.15
61641;HTU21D;62201;49.966;8.342;2022-12-24T10:32:46;13.14;91.18
61641;HTU21D;62201;49.966;8.342;2022-12-24T10:37:41;12.99;89.60
61641;HTU21D;62201;49.966;8.342;2022-12-24T10:40:15;12.92;88.74
61641;HTU21D;62201;49.966;8.342;2022-12-24T10:42:48;12.79;89.11
61641;HTU21D;62201;49.966;8.342;2022-12-24T10:45:16;12.72;89.34
61641;HTU21D;62201;49.966;8.342;2022-12-24T10:47:45;12.67;90.12
61641;HTU21D;62201;49.966;8.342;2022-12-24T10:50:17;12.73;89.34
61641;HTU21D;62201;49.966;8.342;2022-12-24T10:52:46;12.82;89.05
61641;HTU21D;62201;49.966;8.342;2022-12-24T10:57:45;12.79;89.23
61641;HTU21D;62201;49.966;8.342;2022-12-24T11:00:19;12.75;89.30
61641;HTU21D;62201;49.966;8.342;2022-12-24T11:02:46;12.75;90.52
61641;HTU21D;62201;49.966;8.342;2022-12-24T11:05:34;12.81;90.88
61641;HTU21D;62201;49.966;8.342;2022-12-24T11:08:01;12.88;90.50
61641;HTU21D;62201;49.966;8.342;2022-12-24T11:10:26;12.88;90.62
61641;HTU21D;62201;49.966;8.342;2022-12-24T11:12:52;12.86;91.05
61641;HTU21D;62201;49.966;8.342;2022-12-24T11:15:21;12.87;89.41
61641;HTU21D;62201;49.966;8.342;2022-12-24T11:17:58;12.88;89.68
61641;HTU21D;62201;49.966;8.342;2022-12-24T11:20:26;12.85;89.52
61641;HTU21D;62201;49.966;8.342;2022-12-24T11:22:53;12.77;89.99
61641;HTU21D;62201;49.966;8.342;2022-12-24T11:25:29;12.69;90.50
61641;HTU21D;62201;49.966;8.342;2022-12-24T11:28:14;12.58;91.18
61641;HTU21D;62201;49.966;8.342;2022-12-24T11:30:55;12.59;91.72
61641;HTU21D;62201;49.966;8.342;2022-12-24T11:33:21;12.62;91.41
61641;HTU21D;62201;49.966;8.342;2022-12-24T11:35:50;12.57;91.53
61641;HTU21D;62201;49.966;8.342;2022-12-24T11:38:22;12.56;92.50
61641;HTU21D;62201;49.966;8.342;2022-12-24T11:41:00;12.59;92.42
61641;HTU21D;62201;49.966;8.342;2022-12-24T11:43:27;12.71;92.53
61641;HTU21D;62201;49.966;8.342;2022-12-24T11:51:39;12.67;92.03
61641;HTU21D;62201;49.966;8.342;2022-12-24T11:54:18;12.66;92.61
61641;HTU21D;62201;49.966;8.342;2022-12-24T11:56:52;12.64;92.63
61641;HTU21D;62201;49.966;8.342;2022-12-24T12:04:45;12.63;93.56
61641;HTU21D;62201;49.966;8.342;2022-12-24T12:07:16;12.61;93.63
61641;HTU21D;62201;49.966;8.342;2022-12-24T12:09:54;12.59;93.22
61641;HTU21D;62201;49.966;8.342;2022-12-24T12:12:25;12.55;93.87
61641;HTU21D;62201;49.966;8.342;2022-12-24T12:14:59;12.49;94.38
61641;HTU21D;62201;49.966;8.342;2022-12-24T12:17:32;12.50;94.85
61641;HTU21D;62201;49.966;8.342;2022-12-24T12:25:21;12.49;93.29
61641;HTU21D;62201;49.966;8.342;2022-12-24T12:27:50;12.45;92.37
61641;HTU21D;62201;49.966;8.342;2022-12-24T12:30:20;12.42;92.58
61641;HTU21D;62201;49.966;8.342;2022-12-24T12:33:19;12.38;92.19
61641;HTU21D;62201;49.966;8.342;2022-12-24T12:35:47;12.41;92.14
61641;HTU21D;62201;49.966;8.342;2022-12-24T12:38:22;12.51;91.80
61641;HTU21D;62201;49.966;8.342;2022-12-24T12:41:22;12.62;91.11
61641;HTU21D;62201;49.966;8.342;2022-12-24T12:44:11;12.72;90.75
61641;HTU21D;62201;49.966;8.342;2022-12-24T12:47:06;12.90;90.59
61641;HTU21D;62201;49.966;8.342;2022-12-24T12:55:26;12.59;92.46
61641;HTU21D;62201;49.966;8.342;2022-12-24T12:58:03;12.51;92.86
61641;HTU21D;62201;49.966;8.342;2022-12-24T13:00:33;12.51;92.12
61641;HTU21D;62201;49.966;8.342;2022-12-24T13:03:43;12.45;92.48
61641;HTU21D;62201;49.966;8.342;2022-12-24T13:06:24;12.41;92.98
61641;HTU21D;62201;49.966;8.342;2022-12-24T13:17:36;12.47;92.98
61641;HTU21D;62201;49.966;8.342;2022-12-24T13:20:32;12.60;92.59
61641;HTU21D;62201;49.966;8.342;2022-12-24T13:23:01;12.67;92.21
61641;HTU21D;62201;49.966;8.342;2022-12-24T13:25:50;12.70;91.63
61641;HTU21D;62201;49.966;8.342;2022-12-24T13:30:45;12.76;91.50
61641;HTU21D;62201;49.966;8.342;2022-12-24T13:33:13;12.65;91.43
61641;HTU21D;62201;49.966;8.342;2022-12-24T13:36:07;12.52;91.50
61641;HTU21D;62201;49.966;8.342;2022-12-24T13:46:50;12.06;94.35
61641;HTU21D;62201;49.966;8.342;2022-12-24T13:49:24;11.99;94.91
61641;HTU21D;62201;49.966;8.342;2022-12-24T13:51:50;11.93;95.31
61641;HTU21D;62201;49.966;8.342;2022-12-24T13:54:18;11.91;95.43
61641;HTU21D;62201;49.966;8.342;2022-12-24T13:56:46;11.91;95.64
61641;HTU21D;62201;49.966;8.342;2022-12-24T13:59:35;11.92;95.75
61641;HTU21D;62201;49.966;8.342;2022-12-24T14:02:02;11.96;95.83
61641;HTU21D;62201;49.966;8.342;2022-12-24T14:04:31;11.98;95.84
61641;HTU21D;62201;49.966;8.342;2022-12-24T14:06:59;11.99;96.02
61641;HTU21D;62201;49.966;8.342;2022-12-24T14:09:27;12.03;96.13
61641;HTU21D;62201;49.966;8.342;2022-12-24T14:14:39;12.03;96.80
61641;HTU21D;62201;49.966;8.342;2022-12-24T14:19:46;11.94;97.50
61641;HTU21D;62201;49.966;8.342;2022-12-24T14:22:21;11.89;97.74
61641;HTU21D;62201;49.966;8.342;2022-12-24T14:24:57;11.77;98.35
61641;HTU21D;62201;49.966;8.342;2022-12-24T14:30:08;11.54;99.78
61641;HTU21D;62201;49.966;8.342;2022-12-24T14:32:39;11.40;100.35
61641;HTU21D;62201;49.966;8.342;2022-12-24T14:37:39;11.22;101.48
61641;HTU21D;62201;49.966;8.342;2022-12-24T14:40:05;11.17;102.28
61641;HTU21D;62201;49.966;8.342;2022-12-24T14:42:38;11.12;101.97
61641;HTU21D;62201;49.966;8.342;2022-12-24T14:48:16;11.01;102.50
61641;HTU21D;62201;49.966;8.342;2022-12-24T14:54:15;10.94;102.73
61641;HTU21D;62201;49.966;8.342;2022-12-24T14:56:43;10.90;102.79
61641;HTU21D;62201;49.966;8.342;2022-12-24T14:59:17;10.87;103.02
61641;HTU21D;62201;49.966;8.342;2022-12-24T15:01:43;10.82;103.43
61641;HTU21D;62201;49.966;8.342;2022-12-24T15:06:37;10.74;103.99
61641;HTU21D;62201;49.966;8.342;2022-12-24T15:09:03;10.71;104.09
61641;HTU21D;62201;49.966;8.342;2022-12-24T15:11:29;10.66;104.31
61641;HTU21D;62201;49.966;8.342;2022-12-24T15:13:56;10.60;104.79
61641;HTU21D;62201;49.966;8.342;2022-12-24T15:16:33;10.57;105.21
61641;HTU21D;62201;49.966;8.342;2022-12-24T15:19:06;10.52;104.99
61641;HTU21D;62201;49.966;8.342;2022-12-24T15:21:38;10.50;105.31
61641;HTU21D;62201;49.966;8.342;2022-12-24T15:24:26;10.45;105.52
61641;HTU21D;62201;49.966;8.342;2022-12-24T15:26:52;10.42;105.66
61641;HTU21D;62201;49.966;8.342;2022-12-24T15:29:26;10.37;106.17
61641;HTU21D;62201;49.966;8.342;2022-12-24T15:31:54;10.34;106.21
61641;HTU21D;62201;49.966;8.342;2022-12-24T15:34:28;10.33;106.50
61641;HTU21D;62201;49.966;8.342;2022-12-24T15:39:38;10.27;106.64
61641;HTU21D;62201;49.966;8.342;2022-12-24T15:42:06;10.29;107.18
61641;HTU21D;62201;49.966;8.342;2022-12-24T15:44:37;10.25;107.17
61641;HTU21D;62201;49.966;8.342;2022-12-24T15:47:07;10.24;107.30
61641;HTU21D;62201;49.966;8.342;2022-12-24T15:49:33;10.38;107.28
61641;HTU21D;62201;49.966;8.342;2022-12-24T15:52:10;10.39;106.93
61641;HTU21D;62201;49.966;8.342;2022-12-24T15:54:36;10.40;106.69
61641;HTU21D;62201;49.966;8.342;2022-12-24T15:57:22;10.34;106.59
61641;HTU21D;62201;49.966;8.342;2022-12-24T15:59:55;10.30;107.16
61641;HTU21D;62201;49.966;8.342;2022-12-24T16:02:34;10.28;107.12
61641;HTU21D;62201;49.966;8.342;2022-12-24T16:05:35;10.31;107.59
61641;HTU21D;62201;49.966;8.342;2022-12-24T16:10:41;10.31;107.28
61641;HTU21D;62201;49.966;8.342;2022-12-24T16:15:57;10.27;107.31
61641;HTU21D;62201;49.966;8.342;2022-12-24T16:18:31;10.25;107.64
61641;HTU21D;62201;49.966;8.342;2022-12-24T16:20:56;10.23;107.66
61641;HTU21D;62201;49.966;8.342;2022-12-24T16:23:26;10.22;107.89
61641;HTU21D;62201;49.966;8.342;2022-12-24T16:25:53;10.22;108.04
61641;HTU21D;62201;49.966;8.342;2022-12-24T16:28:19;10.26;108.16
61641;HTU21D;62201;49.966;8.342;2022-12-24T16:30:46;10.25;107.74
61641;HTU21D;62201;49.966;8.342;2022-12-24T16:33:14;10.24;107.74
61641;HTU21D;62201;49.966;8.342;2022-12-24T16:35:39;10.25;107.94
61641;HTU21D;62201;49.966;8.342;2022-12-24T16:38:05;10.26;107.83
61641;HTU21D;62201;49.966;8.342;2022-12-24T16:40:30;10.24;107.34
61641;HTU21D;62201;49.966;8.342;2022-12-24T16:42:56;10.33;107.37
61641;HTU21D;62201;49.966;8.342;2022-12-24T16:45:48;10.37;106.92
61641;HTU21D;62201;49.966;8.342;2022-12-24T16:48:35;10.42;106.44
61641;HTU21D;62201;49.966;8.342;2022-12-24T16:51:01;10.41;106.21
61641;HTU21D;62201;49.966;8.342;2022-12-24T16:53:27;10.42;106.59
61641;HTU21D;62201;49.966;8.342;2022-12-24T16:55:52;10.45;106.31
61641;HTU21D;62201;49.966;8.342;2022-12-24T16:58:19;10.48;105.69
61641;HTU21D;62201;49.966;8.342;2022-12-24T17:00:45;10.46;105.63
61641;HTU21D;62201;49.966;8.342;2022-12-24T17:03:11;10.49;105.67
61641;HTU21D;62201;49.966;8.342;2022-12-24T17:05:37;10.46;105.74
61641;HTU21D;62201;49.966;8.342;2022-12-24T17:08:03;10.42;106.16
61641;HTU21D;62201;49.966;8.342;2022-12-24T17:10:28;10.40;106.69
61641;HTU21D;62201;49.966;8.342;2022-12-24T17:12:54;10.37;106.67
61641;HTU21D;62201;49.966;8.342;2022-12-24T17:15:19;10.31;107.12
61641;HTU21D;62201;49.966;8.342;2022-12-24T17:17:45;10.25;107.27
61641;HTU21D;62201;49.966;8.342;2022-12-24T17:20:10;10.22;107.59
61641;HTU21D;62201;49.966;8.342;2022-12-24T17:22:37;10.18;108.00
61641;HTU21D;62201;49.966;8.342;2022-12-24T17:25:03;10.16;108.28